Jackpot

Texas Poker Multi Jackpot System

Kini Telah hadir Jackpot SUPER ROYAL FLUSH

Kini Telah hadir Jackpot 2000 (khusus table VIP keatas).

Ikutilah global jackpot yang tersedia di system kami, dengan system jackpot terbaru dan pertama di indonesia, anda dapat membeli jackpot dengan harga 100 rupiah saja dan menangkan hadiahnya hingga puluhan juta rupiah.

Jackpot bukanlah suatu keharusan untuk dibeli, namun kami memberikan suatu fitur tambahan untuk member tercinta dari www.bacandomino.com.

Terdapat tiga pilihan harga jackpot yang bisa anda beli yaitu :100,500,1000 dan 2000(khusus table VIP Keatas) rupiah.

Hadiah dari Multi jackpot system www.bacandomino.com

  1. full house x 10 harga jackpot yang anda beli.
      (contoh:anda membeli 1000 maka:1000 X10 = 10.000)
  2. four of kind x 250 harga jackpot yang anda beli
      (contoh:anda membeli 1000 maka:1000 X250 = 250.000)
  3. Straight flush x 1200
      (contoh:anda membeli 1000 maka:1000 X1200 = 1.200.000)
  4. Royal flush x 10000 harga jackpot yang anda beli
      (contoh:anda membeli 1000 maka:1000 X10000 = 10.000.000)
  5. SUPER ROYAL FLUSH x 30000 harga jackpot yang anda beli
      (contoh:anda membeli 1000 maka:1000 X30000 = 30.000.000)

Kondisi kartu

  1. full house adalah kondisi kartu dimana kartu anda dan kartu tengah dengan total 7 kartu bisa mendapatkan nilai 5 kartu dengan kombinasi 1 tris(three of kind) dan 1 pair, contoh 3 kartu 10 dan 2 kartu 5
  2. Four of kind adalah kondisi kartu dimana kartu anda dan kartu tengah dengan total 7 kartu bisa mendapatkan nilai 5 kartu dengan kombinasi 4 kartu yang sama jumlah dan 1 kartu apapun juga contoh anda mendapatkan 4 buah kartu angka 3 dan 1 kartu apapun.
  3. Staright flush adalah kondisi kartu dimana kartu anda dan kartu tengah dengan total 7 kartu bisa mendapatkan nilai 5 kartu dengan kombinasi seri / staright dengan kembang yang sama contoh : urutan kartu dari angka 5, 6, 7, 8 , 9 10 dengan kembang yg sama misalnya as hati
  4. Royal flush adalah kondisi kartu dimana kartu anda dan kartu tengah dengan total 7 kartu bisa mendapatkan nilai 5 kartu dengan kombinasi seri / staright dengan kembang yang sama tetapi kartu tersebut haruslah dimulai dari 10. contoh 10, Queen, Jack, King dan aces dengan kembang yang sama
  5. Super Royal flush adalah kondisi kartu dimana Kedua kartu anda digabung dengan 3 kartu pertama meja haruslah royal flush. contoh kartu anda 10,Queen kembang sama dan 3 kartu pertama meja adalah Jack, King dan aces dengan kembang yang sama

Demikian adalah penjelasan dari Multi Jackpot www.bacandomino.com terima kasih dan selamat bermain salam hoki dari kami

Texas Poker Jackpot Winner

TOP SUPER ROYAL FLUSH
No.TanggalNamaPriceWin
119/08 11:52E049306FSuper Royal flush3,000,000
219/08 02:49RD1515Super Royal flush3,000,000
319/08 01:39BIGBRO303Super Royal flush6,000,000
419/08 01:01CE5FB6B6Super Royal flush3,000,000
519/08 00:59TURBO339Super Royal flush6,000,000
TOP ROYAL FLUSH
No.TanggalNamaPriceWin
119/08 12:47DZAKI2018Royal flush10,000,000
219/08 12:44CRAZYARMYRoyal flush2,000,000
319/08 12:35SECUURRITYRoyal flush5,000,000
419/08 12:11UJANGJAYRoyal flush5,000,000
519/08 12:01JAMETER321Royal flush2,000,000
TOP STRAIGHT FLUSH
No.TanggalNamaPriceWin
119/08 12:50IZPKE5UOYJStraight Flush600,000
219/08 12:49BL4CKN3TStraight Flush600,000
319/08 12:48ADDULStraight Flush600,000
419/08 12:47GRACIO27Straight Flush120,000
519/08 12:46M3SUMStraight Flush600,000
LATEST JACKPOT
No.TanggalNamaPriceWin
119/08 12:51BHENZOET99Full House10,000
219/08 12:51BIR1TEMFull House5,000
319/08 12:51LAMBHUK46Full House1,000
419/08 12:51LOURIOS123Full House2,000
519/08 12:51BULLDOGS88Four Of A Kind25,000
619/08 12:51SANINTENFour Of A Kind500,000
719/08 12:51JUJU08Full House5,000
819/08 12:51EENUNUFull House5,000
919/08 12:50HUYPOKERVNFull House2,000
1019/08 12:50KEPARAT_89Full House2,000
1119/08 12:50IZPKE5UOYJStraight Flush600,000
1219/08 12:50DGKJDKGJDAFull House2,000
1319/08 12:50QOWIL12Full House2,000
1419/08 12:50IRWANDA001Full House2,000
1519/08 12:50HOLIZONFull House10,000
1619/08 12:50RE0_JRFull House2,000
1719/08 12:50VL9TNSFPZ9Full House1,000
1819/08 12:50PLT21Full House5,000
1919/08 12:50KITAJAYAFull House2,000
2019/08 12:50WD_TOKFull House2,000
2119/08 12:50CAWLOFull House2,000
2219/08 12:50MADESOMFull House1,000
2319/08 12:50BBO5Full House5,000
2419/08 12:50BUGEK72Full House5,000
2519/08 12:50W1NN3R1000Full House2,000
2619/08 12:50B14890343Full House5,000
2719/08 12:50AAAABGGL63Four Of A Kind125,000
2819/08 12:50SIPJU004Full House2,000
2919/08 12:50PIKU12Full House5,000
3019/08 12:50ABLE12_Full House2,000
3119/08 12:50QYCI1NS6STFull House2,000
3219/08 12:50BIIMUFour Of A Kind500,000
3319/08 12:50APANIHFull House2,000
3419/08 12:50HOMS90Full House1,000
3519/08 12:50TEMPAKUL1Full House2,000
3619/08 12:50EB509634Full House2,000
3719/08 12:50AQ5GHYH7N0Full House500
3819/08 12:50MRAICHOFull House5,000
3919/08 12:50MISEDCALL0Full House5,000
4019/08 12:50TANVAFull House2,000
4119/08 12:50NGAPAXFull House10,000
4219/08 12:50KORAN01Full House2,000
4319/08 12:50MENANG272Full House2,000
4419/08 12:50WAALEXFull House2,000
4519/08 12:50SERPONG33Full House2,000
4619/08 12:50BIR1TEMFour Of A Kind125,000
4719/08 12:50CF27E94CFull House2,000
4819/08 12:50D0MB4Full House5,000
4919/08 12:50VGI1AZZURAFull House2,000
5019/08 12:50TOYOK81Full House500

Domino Multi Jackpot System

Ikutilah global jackpot yang tersedia di system kami, dengan system jackpot terbaru dan pertama di indonesia, anda dapat membeli jackpot dengan harga 100 rupiah saja dan menangkan hadiahnya hingga puluhan juta rupiah.

Jackpot bukanlah suatu keharusan untuk dibeli, namun kami memberikan suatu fitur tambahan untuk member tercinta dari www.bacandomino.com.

Terdapat tiga pilihan harga jackpot yang bisa anda beli yaitu :100,500 dan 1000 rupiah.

Hadiah dari Multi jackpot system www.bacandomino.com

  1. Murni Kecil x 50 harga jackpot yang anda beli.
      (contoh:anda membeli 1000 maka:1000 X 50 = 50.000)
  2. Murni Besar x 50 harga jackpot yang anda beli
      (contoh:anda membeli 1000 maka:1000 X 50 = 50.000)
  3. BALAK x 100 harga jackpot yang anda beli
      (contoh:anda membeli 1000 maka:1000 X 100 = 100.000)
  4. ENAM DEWA x 6666 harga jackpot yang anda beli
      (contoh:anda membeli 1000 maka:1000 X 6666 = 6.666.000)

Demikian adalah penjelasan dari Multi Jackpot www.bacandomino.com terima kasih dan selamat bermain salam hoki dari kami

Domino Jackpot Winner

TOP ENAM DEWA
No.TanggalNamaPriceWin
119/08 09:13JADALOmurni enam666,600
219/08 06:41GONZALES22murni enam6,666,000
319/08 03:18BUDAKBUImurni enam6,666,000
419/08 02:47ENZ77murni enam666,600
519/08 00:52KINGDN99murni enam3,333,000
TOP BALAK
No.TanggalNamaPriceWin
119/08 12:50X0CFNNLSWHbalak100,000
219/08 12:47NCUSSERRbalak50,000
319/08 12:47ARHETbalak100,000
419/08 12:46HUSEN007balak10,000
519/08 12:41GETOZbalak10,000
LATEST JACKPOT
No.TanggalNamaPriceWin
119/08 12:50CAHAYA1212murni kecil25,000
219/08 12:50BI4DABmurni kecil5,000
319/08 12:50X0CFNNLSWHbalak100,000
419/08 12:48REMILE123murni besar5,000
519/08 12:47LB992882murni besar50,000
619/08 12:47DOA__IBUmurni besar50,000
719/08 12:47ALEXX72murni kecil5,000
819/08 12:47NCUSSERRbalak50,000
919/08 12:47ARHETbalak100,000
1019/08 12:46BATTEWmurni kecil50,000
1119/08 12:46FALS81murni besar5,000
1219/08 12:46HUSEN007balak10,000
1319/08 12:45CHIPQN24murni kecil50,000
1419/08 12:45ARHETmurni besar50,000
1519/08 12:44DONCOL88murni kecil50,000
1619/08 12:43RITA1991murni kecil5,000
1719/08 12:43KONTOL8lucky9910,000
1819/08 12:43LIONG78910murni kecil5,000
1919/08 12:43MAJID12murni besar50,000
2019/08 12:42WINDI21murni kecil50,000
2119/08 12:42B0672E5Emurni kecil5,000
2219/08 12:42C53975393murni besar50,000
2319/08 12:42BANDIT87lucky992,500
2419/08 12:41GETOZbalak10,000
2519/08 12:41THEJACK78balak10,000
2619/08 12:41CULUK99murni kecil5,000
2719/08 12:41FREEN008murni besar5,000
2819/08 12:40XXYYWWZZmurni kecil50,000
2919/08 12:40BUNGOL99murni besar50,000
3019/08 12:40PLGJELOWmurni besar5,000
3119/08 12:40SAWITTO23murni kecil25,000
3219/08 12:40SEB12EN6murni kecil25,000
3319/08 12:39PANGGARANGmurni besar50,000
3419/08 12:39PUNGUT302murni kecil25,000
3519/08 12:38KOPRUKmurni kecil50,000
3619/08 12:38VHY86murni besar50,000
3719/08 12:38AISS008murni besar25,000
3819/08 12:38INDAHNYA22murni kecil25,000
3919/08 12:37S4KITOmurni besar25,000
4019/08 12:37ARIES07murni besar50,000
4119/08 12:37LB992882murni besar50,000
4219/08 12:37BAGASROCKmurni kecil50,000
4319/08 12:37P7BM1720lucky992,500
4419/08 12:36LIAMANIS30balak50,000
4519/08 12:36ZUZIYmurni kecil5,000
4619/08 12:35X0CFNNLSWHmurni besar50,000
4719/08 12:35SEB12EN6murni kecil25,000
4819/08 12:35ERNHY17lucky992,500
4919/08 12:35B4DIJOKERbalak100,000
5019/08 12:35ARH878787murni kecil50,000

Ceme Multi Jackpot System

Jackpot dilihat dari gabungan kartu pemain dengan kartu bandar. Bandar harus membeli jackpot sebanyak jumlah player yang sedang duduk. Sebagai contoh bila terdapat 3 pemain duduk bermain, dan bandar memutuskan untuk membeli jackpot Rp 1.000, maka pada periode tersebut bandar akan membeli jackpot sebanyak 3xRp1.000 = Rp3.000.

Jackpot bukanlah suatu keharusan untuk dibeli, namun kami memberikan suatu fitur tambahan untuk member tercinta dari www.bacandomino.com.

Terdapat tiga pilihan harga jackpot yang bisa anda beli yaitu :100,500 dan 1000 rupiah.

Hadiah dari Multi jackpot system www.bacandomino.com

  1. Murni Kecil x 50 harga jackpot yang anda beli.
      (contoh:anda membeli 1000 maka:1000 X 50 = 50.000)
  2. Murni Besar x 50 harga jackpot yang anda beli
      (contoh:anda membeli 1000 maka:1000 X 50 = 50.000)
  3. BALAK x 200 harga jackpot yang anda beli
      (contoh:anda membeli 1000 maka:1000 X 200 = 200.000)
  4. ENAM DEWA x 6666 harga jackpot yang anda beli
      (contoh:anda membeli 1000 maka:1000 X 6666 = 6.666.000)

Demikian adalah penjelasan dari Multi Jackpot www.bacandomino.com terima kasih dan selamat bermain salam hoki dari kami

Ceme Jackpot Winner

TOP ENAM DEWA
No.TanggalNamaPriceWin
119/08 12:50SIRALmurni enam6,666,000
219/08 12:50HYPERGAMEmurni enam6,666,000
319/08 12:48ALVINZAmurni enam666,600
419/08 12:04NJ16RAXXmurni enam6,666,000
519/08 11:49JAVAS15murni enam6,666,000
TOP BALAK
No.TanggalNamaPriceWin
119/08 12:50SIRALbalak200,000
219/08 12:50KEMLEbalak200,000
319/08 12:50SIRALbalak200,000
419/08 12:50WONKTEGALbalak200,000
519/08 12:50JOHNKADAL2balak200,000
LATEST JACKPOT
No.TanggalNamaPriceWin
119/08 12:51BIB123murni besar50,000
219/08 12:50CAMPTO26murni kecil50,000
319/08 12:50DHANI897murni kecil25,000
419/08 12:50SIRALbalak200,000
519/08 12:50KEMLEbalak200,000
619/08 12:50SIRALbalak200,000
719/08 12:50MAND4LJPmurni kecil50,000
819/08 12:50KAYUBUSUKmurni kecil50,000
919/08 12:50NABILAMIAmurni kecil50,000
1019/08 12:50MELAWANmurni kecil5,000
1119/08 12:50WONKTEGALbalak200,000
1219/08 12:50JOHNKADAL2balak200,000
1319/08 12:50ASOOOYmurni kecil25,000
1419/08 12:50SIRALmurni enam6,666,000
1519/08 12:50HYPERGAMEmurni enam6,666,000
1619/08 12:49NUANSAmurni kecil50,000
1719/08 12:49BRWONmurni besar50,000
1819/08 12:49KOKO8669murni besar50,000
1919/08 12:49PROTOL999balak200,000
2019/08 12:48PETUALANGmurni besar50,000
2119/08 12:48INEKE12murni kecil25,000
2219/08 12:48KAYATImurni kecil25,000
2319/08 12:48PROV1987murni besar50,000
2419/08 12:48PROV1987balak200,000
2519/08 12:48ARUL88balak20,000
2619/08 12:48PEJUANG7murni besar50,000
2719/08 12:48FIRNANDO88murni besar50,000
2819/08 12:48ALVINZAmurni enam666,600
2919/08 12:48FADEL441murni kecil50,000
3019/08 12:48RASOKI91murni kecil50,000
3119/08 12:48SIRALmurni besar50,000
3219/08 12:48REGARD47murni besar25,000
3319/08 12:4866TODES66murni besar5,000
3419/08 12:48RADIANSYAHmurni besar50,000
3519/08 12:47BLOTONG7murni kecil50,000
3619/08 12:47DARIUSmurni kecil50,000
3719/08 12:47SYANG02murni kecil25,000
3819/08 12:47KONDOM99balak100,000
3919/08 12:47CAKHERRYbalak100,000
4019/08 12:47LB998281murni kecil5,000
4119/08 12:47LANI1491murni kecil25,000
4219/08 12:47WILY99murni besar50,000
4319/08 12:47DARIUSmurni kecil50,000
4419/08 12:46F2172murni kecil50,000
4519/08 12:46LABALOBOmurni besar50,000
4619/08 12:46NIKOAGUS54murni kecil50,000
4719/08 12:46SUET99murni kecil50,000
4819/08 12:46BOJESS1616murni kecil25,000
4919/08 12:46ONCOM797murni kecil25,000
5019/08 12:46JX4WK47WVYbalak200,000